HARTSFIELD - JACKSON ATLANTA INTL

KATL (ATL)
Atlanta, Georgia
Towered

Vatsim Metar:
KATL 231952Z 22010KT 10SM FEW048 BKN200 BKN250 30/17 A3001 RMK AO2 SLP150 TCU DSNT N NE MDT CU ALQDS T03000172

No ATC Online

Traffic

Inbound:
Ident
Type
Name
ETA
Phase
DAL1613
B739
Mark Hall KLAX
22:27 Z
Climb
UAL3992
B738
Kenny KIAD
21:27 Z
Cruse
FFT4347
A20N
Gal Ymer CYYZ
21:53 Z
Cruse
DAL1956
B738
Tyler Hanus KMSP
Boarding

Outbound:
Ident
Type
Name
Destination
Phase